Time;durP1;ratioP1;P1;durP2;ratioP2;P2;SDS_P1;SDS_P2;PMS_P1;PMS_P2;Temp;Humidity;BMP_temperature;BMP_pressure;BME280_temperature;BME280_humidity;BME280_pressure;Samples;Min_cycle;Max_cycle;Signal;HPM_P1;HPM_P2
2023/02/14 00:01:47;;;;;;;9.68;5.15;;;;;;;-3.30;73.70;99549.06;4776176;30;20047;-84
2023/02/14 00:04:14;;;;;;;12.85;6.13;;;;;;;-3.38;73.54;99541.38;4792738;30;20043;-84
2023/02/14 00:06:41;;;;;;;12.70;5.45;;;;;;;-3.38;73.25;99536.16;4791126;30;20055;-85
2023/02/14 00:09:11;;;;;;;9.82;4.93;;;;;;;-3.30;73.38;99546.44;4770092;30;20461;-84
2023/02/14 00:11:37;;;;;;;15.80;5.80;;;;;;;-3.33;72.99;99541.28;4797759;30;20047;-85
2023/02/14 00:16:48;;;;;;;9.50;5.25;;;;;;;-3.55;73.66;99541.69;4760298;30;20051;-83
2023/02/14 00:19:16;;;;;;;13.05;5.78;;;;;;;-3.63;73.58;99543.59;4759139;30;20059;-84
2023/02/14 00:21:42;;;;;;;10.68;5.13;;;;;;;-3.71;73.47;99533.31;4760629;30;20104;-84
2023/02/14 00:24:11;;;;;;;9.00;5.18;;;;;;;-3.76;73.40;99540.38;4789478;30;20134;-84
2023/02/14 00:26:39;;;;;;;14.20;5.70;;;;;;;-3.74;73.57;99530.75;4789476;30;20043;-84
2023/02/14 00:29:10;;;;;;;14.77;6.25;;;;;;;-3.71;73.85;99529.84;4790530;30;20588;-84
2023/02/14 00:31:36;;;;;;;12.85;6.40;;;;;;;-3.62;73.92;99542.69;4775137;30;20055;-84
2023/02/14 00:34:02;;;;;;;11.77;6.78;;;;;;;-3.59;73.68;99536.56;4774814;30;20069;-85
2023/02/14 00:36:28;;;;;;;13.80;5.68;;;;;;;-3.66;73.76;99543.66;4760749;30;20047;-84
2023/02/14 00:38:54;;;;;;;14.07;6.63;;;;;;;-3.82;73.68;99540.47;4775304;30;20161;-85
2023/02/14 00:41:21;;;;;;;11.73;6.30;;;;;;;-3.86;73.79;99532.75;4776718;30;20059;-83
2023/02/14 00:43:52;;;;;;;13.57;6.03;;;;;;;-3.82;73.79;99535.25;4790515;30;20082;-85
2023/02/14 00:46:20;;;;;;;12.93;6.53;;;;;;;-3.80;73.97;99533.50;4776505;30;20039;-85
2023/02/14 00:48:46;;;;;;;11.38;5.63;;;;;;;-3.87;73.69;99531.00;4776343;30;20051;-85
2023/02/14 00:51:13;;;;;;;12.18;5.82;;;;;;;-3.95;73.46;99529.41;4790249;30;20058;-84
2023/02/14 00:53:40;;;;;;;13.15;6.03;;;;;;;-3.97;73.85;99530.31;4792539;30;20516;-84
2023/02/14 00:56:06;;;;;;;10.15;5.30;;;;;;;-3.95;73.89;99520.69;4791711;30;20049;-84
2023/02/14 00:58:32;;;;;;;12.65;6.35;;;;;;;-3.85;73.96;99524.84;4775537;30;20059;-83
2023/02/14 01:00:59;;;;;;;11.40;5.85;;;;;;;-3.88;73.96;99524.91;4775196;30;20484;-84
2023/02/14 01:03:25;;;;;;;15.05;5.75;;;;;;;-3.74;73.50;99522.91;4774180;30;20103;-84
2023/02/14 01:05:52;;;;;;;10.82;5.68;;;;;;;-3.78;73.17;99526.47;4759297;30;20039;-84
2023/02/14 01:08:18;;;;;;;9.98;6.25;;;;;;;-3.81;73.36;99526.53;4775187;30;20591;-85
2023/02/14 01:10:44;;;;;;;13.98;6.00;;;;;;;-3.85;73.48;99527.47;4791232;30;20089;-85
2023/02/14 01:13:12;;;;;;;10.85;5.82;;;;;;;-3.71;73.16;99528.06;4749377;30;20161;-84
2023/02/14 01:15:43;;;;;;;13.30;6.43;;;;;;;-3.67;72.86;99529.75;4779041;30;20051;-81
2023/02/14 01:18:09;;;;;;;10.80;5.32;;;;;;;-3.63;73.02;99529.69;4791970;30;20051;-84
2023/02/14 01:20:35;;;;;;;11.40;5.50;;;;;;;-3.65;72.79;99529.69;4790666;30;20104;-85
2023/02/14 01:23:02;;;;;;;14.65;5.68;;;;;;;-3.70;72.36;99529.78;4790561;30;20055;-85
2023/02/14 01:25:28;;;;;;;11.73;5.75;;;;;;;-3.79;72.60;99529.13;4773301;30;20050;-85
2023/02/14 01:27:54;;;;;;;14.32;7.25;;;;;;;-3.79;72.45;99519.53;4789802;30;20058;-86
2023/02/14 01:30:20;;;;;;;13.60;6.43;;;;;;;-3.72;72.70;99521.16;4788202;29;20485;-85
2023/02/14 01:32:46;;;;;;;14.88;7.38;;;;;;;-3.85;72.66;99514.41;4788735;30;20500;-85
2023/02/14 01:35:12;;;;;;;17.33;8.05;;;;;;;-3.82;72.88;99516.97;4772544;30;20105;-85
2023/02/14 01:37:38;;;;;;;20.42;11.15;;;;;;;-3.74;73.04;99522.06;4788775;30;20148;-85
2023/02/14 01:40:07;;;;;;;26.35;14.48;;;;;;;-3.70;72.56;99521.09;4774326;29;20057;-85
2023/02/14 01:42:35;;;;;;;25.35;14.23;;;;;;;-3.74;72.57;99512.47;4772386;30;20397;-85
2023/02/14 01:45:08;;;;;;;29.48;14.63;;;;;;;-3.72;72.73;99513.31;4795603;29;20047;-85
2023/02/14 01:47:39;;;;;;;28.00;14.18;;;;;;;-3.72;72.73;99513.31;4791043;29;20106;-86
2023/02/14 01:50:18;;;;;;;22.50;12.00;;;;;;;-3.81;72.62;99503.00;4790856;29;20050;-84
2023/02/14 01:53:01;;;;;;;28.40;12.68;;;;;;;-3.82;72.54;99506.53;4807369;29;20050;-83
2023/02/14 01:55:32;;;;;;;21.88;11.25;;;;;;;-3.77;72.91;99502.06;4806716;29;20046;-84
2023/02/14 01:58:13;;;;;;;22.17;11.30;;;;;;;-3.88;72.81;99496.19;4775260;29;20046;-83
2023/02/14 02:00:57;;;;;;;15.32;8.55;;;;;;;-3.84;73.09;99503.06;4760523;29;20054;-82
2023/02/14 02:03:38;;;;;;;13.68;6.68;;;;;;;-3.86;72.64;99491.81;4757508;30;20138;-83
2023/02/14 02:06:18;;;;;;;17.88;6.82;;;;;;;-3.80;72.85;99499.53;4757471;30;20142;-84
2023/02/14 02:08:56;;;;;;;13.93;6.45;;;;;;;-3.75;72.83;99500.31;4772224;30;20149;-83
2023/02/14 02:11:22;;;;;;;10.68;5.55;;;;;;;-3.70;72.92;99501.06;4773122;30;20055;-85
2023/02/14 02:13:48;;;;;;;15.50;6.07;;;;;;;-3.63;72.93;99487.88;4773200;30;20051;-84
2023/02/14 02:16:53;;;;;;;11.75;5.90;;;;;;;-3.53;72.71;99494.66;4762477;30;20086;-83
2023/02/14 02:19:19;;;;;;;14.55;6.10;;;;;;;-3.60;72.08;99493.91;4788313;30;20072;-84
2023/02/14 02:21:56;;;;;;;11.70;5.82;;;;;;;-3.61;71.95;99493.91;4742427;30;20121;-84
2023/02/14 02:24:34;;;;;;;11.07;5.53;;;;;;;-3.70;71.90;99485.38;4772232;30;20047;-84
2023/02/14 02:27:17;;;;;;;13.13;5.68;;;;;;;-3.71;72.00;99488.91;4756880;30;20039;-83
2023/02/14 02:29:55;;;;;;;13.18;5.68;;;;;;;-3.70;72.07;99487.13;4772059;30;20631;-85
2023/02/14 02:32:44;;;;;;;12.95;5.65;;;;;;;-3.74;71.71;99481.13;4772349;30;20048;-85
2023/02/14 02:35:36;;;;;;;9.20;5.47;;;;;;;-3.75;72.14;99483.78;4788418;29;20137;-85
2023/02/14 02:38:22;;;;;;;15.80;5.82;;;;;;;-3.72;71.89;99489.78;4785347;29;20090;-85
2023/02/14 02:41:25;;;;;;;10.23;5.93;;;;;;;-3.77;71.69;99486.41;4775269;29;20141;-85
2023/02/14 02:44:12;;;;;;;12.32;5.80;;;;;;;-3.95;71.33;99476.31;4778925;29;20055;-84
2023/02/14 02:47:02;;;;;;;12.35;5.80;;;;;;;-3.93;71.57;99470.16;4793644;29;20050;-85
2023/02/14 02:58:39;;;;;;;9.73;5.07;;;;;;;-4.13;71.31;99466.22;4796641;29;20058;-87
2023/02/14 03:01:10;;;;;;;9.75;4.65;;;;;;;-4.16;71.41;99467.13;4794011;29;20572;-87
2023/02/14 03:06:23;;;;;;;10.75;5.30;;;;;;;-4.14;71.71;99467.94;4779616;29;20146;-85
2023/02/14 03:08:49;;;;;;;8.90;5.30;;;;;;;-4.09;71.60;99462.66;4809700;29;20558;-86
2023/02/14 03:11:15;;;;;;;10.70;5.70;;;;;;;-4.07;72.12;99472.19;4799790;29;20047;-86
2023/02/14 03:13:40;;;;;;;10.30;5.18;;;;;;;-4.10;71.80;99471.38;4812952;29;20046;-86
2023/02/14 03:16:40;;;;;;;9.77;5.25;;;;;;;-4.09;71.61;99467.91;4780636;29;20464;-86
2023/02/14 03:19:31;;;;;;;10.63;5.40;;;;;;;-4.04;72.14;99477.34;4791222;29;20548;-86
2023/02/14 03:22:18;;;;;;;11.05;5.50;;;;;;;-4.00;71.68;99472.94;4775907;30;20040;-85
2023/02/14 03:24:56;;;;;;;10.35;5.18;;;;;;;-4.02;71.43;99470.34;4790441;30;20051;-87
2023/02/14 03:27:22;;;;;;;11.55;5.57;;;;;;;-4.07;71.59;99466.09;4786024;30;20055;-83
2023/02/14 03:30:13;;;;;;;10.18;5.47;;;;;;;-4.02;71.46;99469.50;4742579;30;20059;-84
2023/02/14 03:33:00;;;;;;;17.98;5.97;;;;;;;-4.04;71.63;99463.44;4758304;30;20044;-89
2023/02/14 03:35:45;;;;;;;10.63;4.72;;;;;;;-4.04;71.92;99468.66;4772061;30;20412;-88
2023/02/14 03:38:14;;;;;;;15.32;5.28;;;;;;;-3.98;71.62;99471.16;4773266;30;20055;-87
2023/02/14 03:40:58;;;;;;;;;;;;;;;-3.86;71.57;99481.38;4773851;30;20055;-84
2023/02/14 03:43:34;;;;;;;8.30;5.10;;;;;;;-3.88;71.75;99466.59;4771765;30;19925;-82
2023/02/14 03:46:07;;;;;;;11.95;5.43;;;;;;;-3.93;71.50;99482.38;4772353;30;20055;-81
2023/02/14 03:48:35;;;;;;;9.45;4.97;;;;;;;-3.96;71.15;99477.19;4772615;30;20044;-87
2023/02/14 03:51:03;;;;;;;8.60;5.10;;;;;;;-3.89;71.38;99468.34;4758067;30;20044;-87
2023/02/14 03:53:34;;;;;;;8.98;4.80;;;;;;;-3.79;71.18;99476.88;4773336;30;20167;-79
2023/02/14 03:56:25;;;;;;;10.38;4.78;;;;;;;-3.73;71.15;99472.38;4758516;30;20493;-81
2023/02/14 03:58:55;;;;;;;12.07;5.15;;;;;;;-3.73;71.09;99472.38;4772747;30;20046;-81
2023/02/14 04:01:34;;;;;;;13.48;5.75;;;;;;;-3.62;70.48;99474.78;4774818;30;20134;-83
2023/02/14 04:04:02;;;;;;;9.88;4.93;;;;;;;-3.62;70.12;99469.56;4774710;30;20063;-81
2023/02/14 04:06:28;;;;;;;13.60;5.40;;;;;;;-3.57;69.92;99472.06;4787271;30;20058;-86
2023/02/14 04:08:54;;;;;;;9.95;5.03;;;;;;;-3.48;69.85;99469.28;4791457;29;20130;-84
2023/02/14 04:11:20;;;;;;;10.60;5.60;;;;;;;-3.54;69.54;99461.56;4784237;30;20405;-87
2023/02/14 04:13:49;;;;;;;10.35;5.72;;;;;;;-3.49;69.26;99472.78;4775781;30;20105;-84
2023/02/14 04:16:15;;;;;;;12.23;5.88;;;;;;;-3.40;69.32;99472.59;4771008;30;20052;-83
2023/02/14 04:21:25;;;;;;;16.88;7.85;;;;;;;-3.36;69.01;99471.63;4773951;30;20462;-85
2023/02/14 04:23:51;;;;;;;13.85;6.78;;;;;;;-3.28;68.62;99467.06;4759101;30;20043;-82
2023/02/14 04:26:16;;;;;;;12.23;6.90;;;;;;;-3.17;68.37;99465.09;4789445;30;20047;-81
2023/02/14 04:28:42;;;;;;;13.70;6.25;;;;;;;-3.10;68.31;99463.19;4758340;30;20428;-84
2023/02/14 04:31:10;;;;;;;17.75;6.88;;;;;;;-3.15;67.27;99457.22;4758241;30;20058;-84
2023/02/14 04:33:36;;;;;;;19.90;7.30;;;;;;;-3.00;67.55;99474.31;4800153;29;20070;-85
2023/02/14 04:36:02;;;;;;;10.13;5.43;;;;;;;-3.02;67.29;99468.25;4792300;29;20492;-88
2023/02/14 04:38:27;;;;;;;15.30;6.10;;;;;;;-3.06;66.83;99459.63;4774757;30;20058;-87
2023/02/14 04:40:53;;;;;;;8.75;5.13;;;;;;;-3.05;66.71;99466.56;4789191;30;20066;-84
2023/02/14 04:43:19;;;;;;;20.30;4.80;;;;;;;-3.08;66.62;99453.59;4773414;30;20055;-85
2023/02/14 04:45:46;;;;;;;15.57;5.72;;;;;;;-3.01;66.17;99456.88;4743264;30;20180;-83
2023/02/14 04:48:11;;;;;;;11.27;5.25;;;;;;;-2.97;65.63;99453.31;4773592;30;20141;-83
2023/02/14 04:50:37;;;;;;;14.75;4.97;;;;;;;-2.94;65.53;99448.00;4772840;30;20484;-82
2023/02/14 04:53:03;;;;;;;8.35;4.97;;;;;;;-2.84;65.24;99443.44;4790920;30;20055;-86
2023/02/14 04:55:29;;;;;;;10.75;5.22;;;;;;;-2.70;65.23;99447.44;4760194;30;20112;-87
2023/02/14 04:57:55;;;;;;;7.45;4.57;;;;;;;-2.47;66.60;99438.16;4788820;30;20053;-82
2023/02/14 05:00:21;;;;;;;9.05;5.00;;;;;;;-2.30;65.07;99446.41;4773256;30;20431;-82
2023/02/14 05:02:47;;;;;;;9.88;5.25;;;;;;;-2.32;64.84;99432.50;4789684;30;20047;-81
2023/02/14 05:05:12;;;;;;;9.52;5.30;;;;;;;-2.22;64.19;99436.63;4762562;30;20070;-84
2023/02/14 05:07:38;;;;;;;8.18;4.60;;;;;;;-2.11;63.71;99422.34;4790057;30;20057;-82
2023/02/14 05:10:05;;;;;;;11.00;5.97;;;;;;;-2.05;63.54;99424.81;4789383;30;20058;-81
2023/02/14 05:12:31;;;;;;;10.73;5.50;;;;;;;-1.99;63.28;99416.78;4790938;30;20055;-84
2023/02/14 05:14:56;;;;;;;11.07;5.60;;;;;;;-1.83;63.18;99431.19;4772892;30;20058;-80
2023/02/14 05:17:23;;;;;;;14.13;5.90;;;;;;;-1.90;62.10;99424.38;4758684;30;20043;-89
2023/02/14 05:19:48;;;;;;;16.70;6.05;;;;;;;-1.77;61.73;99436.25;4773444;30;20094;-80
2023/02/14 05:22:14;;;;;;;11.95;5.22;;;;;;;-1.76;61.84;99426.63;4789703;30;20074;-84
2023/02/14 05:24:40;;;;;;;9.88;5.47;;;;;;;-1.58;61.89;99435.69;4758814;30;20062;-85
2023/02/14 05:27:06;;;;;;;9.93;5.93;;;;;;;-1.61;60.79;99423.56;4773225;30;20051;-84
2023/02/14 05:29:32;;;;;;;7.75;4.85;;;;;;;-1.37;60.71;99419.34;4773177;30;20047;-86
2023/02/14 05:31:58;;;;;;;13.18;6.97;;;;;;;-1.19;60.29;99427.56;4773423;30;20192;-83
2023/02/14 05:34:23;;;;;;;11.82;5.55;;;;;;;-1.03;59.83;99431.41;4772802;30;20047;-84
2023/02/14 05:36:49;;;;;;;12.63;5.82;;;;;;;-0.85;59.56;99422.94;4758065;30;20063;-84
2023/02/14 05:39:15;;;;;;;10.98;6.00;;;;;;;-0.85;58.63;99422.94;4772861;30;20141;-86
2023/02/14 05:41:41;;;;;;;11.15;6.15;;;;;;;-0.85;58.30;99430.81;4786890;30;20531;-85
2023/02/14 05:44:06;;;;;;;12.90;6.72;;;;;;;-0.76;58.81;99427.03;4787534;30;20059;-84
2023/02/14 05:46:35;;;;;;;11.30;5.50;;;;;;;-0.88;57.77;99425.66;4757745;30;20053;-85
2023/02/14 05:49:02;;;;;;;9.93;5.65;;;;;;;-0.84;57.76;99419.41;4757777;30;20052;-82
2023/02/14 05:51:27;;;;;;;19.05;6.68;;;;;;;-0.64;57.62;99425.78;4757868;30;20051;-87
2023/02/14 05:53:53;;;;;;;23.45;6.72;;;;;;;-0.70;56.91;99420.75;4773005;30;20141;-84
2023/02/14 05:56:19;;;;;;;23.35;6.05;;;;;;;-0.55;56.88;99425.47;4789247;30;20051;-85
2023/02/14 05:58:45;;;;;;;8.52;5.22;;;;;;;-0.50;56.57;99424.41;4772895;30;20075;-85
2023/02/14 06:01:10;;;;;;;15.95;7.38;;;;;;;-0.21;56.44;99426.97;4788786;30;20047;-87
2023/02/14 06:03:36;;;;;;;14.48;5.43;;;;;;;-0.16;55.31;99427.66;4757782;30;20420;-85
2023/02/14 06:06:03;;;;;;;8.95;5.07;;;;;;;-0.12;55.65;99426.63;4788764;30;20133;-86
2023/02/14 06:08:28;;;;;;;6.28;4.80;;;;;;;-0.05;55.22;99430.75;4757630;30;20126;-83
2023/02/14 06:10:54;;;;;;;9.75;5.50;;;;;;;0.34;55.39;99433.72;4772490;30;20051;-84
2023/02/14 06:13:20;;;;;;;10.73;5.35;;;;;;;0.87;54.67;99435.25;4758042;30;20062;-86
2023/02/14 06:15:46;;;;;;;28.30;8.43;;;;;;;1.01;53.16;99426.78;4772494;30;20051;-85
2023/02/14 06:18:11;;;;;;;8.70;5.07;;;;;;;0.87;51.45;99425.56;4788097;30;20442;-84
2023/02/14 06:20:37;;;;;;;13.88;5.75;;;;;;;0.75;51.99;99427.81;4787244;30;20066;-81
2023/02/14 06:23:03;;;;;;;13.45;5.30;;;;;;;0.86;52.38;99430.88;4789019;30;20059;-82
2023/02/14 06:25:29;;;;;;;9.93;5.07;;;;;;;0.96;52.79;99434.88;4788328;30;20428;-83
2023/02/14 06:27:56;;;;;;;10.38;5.47;;;;;;;0.97;51.50;99426.03;4757350;30;20134;-84
2023/02/14 06:30:22;;;;;;;17.13;6.00;;;;;;;0.85;51.97;99429.16;4787879;30;20641;-81
2023/02/14 06:32:49;;;;;;;9.60;4.80;;;;;;;0.91;51.33;99423.69;4771704;30;20508;-81
2023/02/14 06:35:14;;;;;;;13.38;5.97;;;;;;;0.83;51.02;99409.94;4771956;30;20142;-84
2023/02/14 06:37:41;;;;;;;11.20;5.95;;;;;;;0.38;50.53;99419.56;4758513;30;20134;-83
2023/02/14 06:40:08;;;;;;;9.23;5.43;;;;;;;0.08;51.49;99410.16;4757650;30;20051;-85
2023/02/14 06:42:34;;;;;;;9.55;5.20;;;;;;;0.34;51.71;99412.69;4789225;30;20058;-84
2023/02/14 06:45:06;;;;;;;10.20;5.13;;;;;;;0.32;51.84;99401.38;4773217;30;20071;-85
2023/02/14 06:47:32;;;;;;;8.88;4.57;;;;;;;0.40;51.60;99399.28;4772398;30;20143;-88
2023/02/14 06:50:00;;;;;;;7.45;4.45;;;;;;;0.59;51.50;99396.81;4757318;30;20138;-85
2023/02/14 06:52:26;;;;;;;8.32;4.50;;;;;;;0.51;50.19;99398.91;4776958;30;20500;-85
2023/02/14 06:54:52;;;;;;;6.82;4.38;;;;;;;0.34;51.36;99406.56;4790068;30;20048;-83
2023/02/14 06:57:17;;;;;;;9.30;4.28;;;;;;;0.40;50.01;99401.94;4757114;30;20051;-85
2023/02/14 06:59:43;;;;;;;8.02;5.40;;;;;;;0.44;50.28;99402.66;4756488;30;20104;-81
2023/02/14 07:02:10;;;;;;;9.02;4.50;;;;;;;0.37;50.77;99398.56;4793587;29;20070;-86
2023/02/14 07:04:36;;;;;;;10.00;4.20;;;;;;;0.46;52.66;99390.34;4773782;30;20054;-83
2023/02/14 07:07:03;;;;;;;10.85;4.50;;;;;;;0.50;51.00;99391.94;4795180;30;20047;-80
2023/02/14 07:09:29;;;;;;;10.95;4.70;;;;;;;0.59;51.18;99391.56;4778473;30;20082;-77
2023/02/14 07:11:54;;;;;;;15.23;10.20;;;;;;;0.59;49.25;99388.94;4791729;30;20415;-81
2023/02/14 07:14:20;;;;;;;9.38;5.50;;;;;;;0.44;49.90;99381.63;4772648;30;20449;-81
2023/02/14 07:16:46;;;;;;;9.63;4.60;;;;;;;0.59;50.56;99378.41;4774523;29;20047;-77
2023/02/14 07:19:12;;;;;;;10.60;5.60;;;;;;;0.71;50.73;99380.59;4789375;29;20063;-80
2023/02/14 07:21:37;;;;;;;10.90;5.13;;;;;;;0.78;51.10;99368.03;4789337;29;20057;-79
2023/02/14 07:24:03;;;;;;;16.70;5.57;;;;;;;1.06;50.45;99375.69;4805431;29;20081;-83
2023/02/14 07:26:29;;;;;;;7.68;5.10;;;;;;;1.11;49.66;99367.59;4789304;29;20142;-85
2023/02/14 07:28:55;;;;;;;14.82;5.45;;;;;;;1.31;49.64;99374.66;4807895;29;20557;-83
2023/02/14 07:31:22;;;;;;;7.43;4.45;;;;;;;1.40;49.36;99364.59;4778564;29;20452;-84
2023/02/14 07:33:49;;;;;;;20.30;4.70;;;;;;;1.30;48.33;99357.16;4793698;29;20421;-82
2023/02/14 07:36:15;;;;;;;12.70;5.50;;;;;;;1.28;47.97;99351.06;4794240;29;20104;-84
2023/02/14 07:38:41;;;;;;;5.78;3.63;;;;;;;1.23;47.24;99334.63;4812135;29;20389;-82
2023/02/14 07:41:06;;;;;;;10.80;5.30;;;;;;;1.35;47.99;99339.38;4796421;29;20392;-83
2023/02/14 07:43:35;;;;;;;13.68;4.55;;;;;;;1.31;47.88;99346.53;4797159;29;20055;-83
2023/02/14 07:46:02;;;;;;;6.97;3.97;;;;;;;1.36;46.96;99346.38;4779086;29;20046;-84
2023/02/14 07:48:28;;;;;;;7.00;4.47;;;;;;;1.32;47.13;99336.88;4793073;29;20051;-84
2023/02/14 07:50:56;;;;;;;13.07;4.05;;;;;;;1.01;47.26;99339.91;4792624;29;20054;-82
2023/02/14 07:53:23;;;;;;;7.90;3.97;;;;;;;1.20;48.05;99331.22;4777687;29;20055;-83
2023/02/14 07:55:52;;;;;;;10.25;4.30;;;;;;;1.66;48.17;99338.94;4808763;29;20503;-83
2023/02/14 07:58:18;;;;;;;7.70;4.53;;;;;;;1.66;47.33;99329.22;4814987;29;20051;-83
2023/02/14 08:00:45;;;;;;;6.82;4.20;;;;;;;1.61;46.67;99319.81;4777717;29;20102;-82
2023/02/14 08:03:12;;;;;;;9.38;3.78;;;;;;;1.53;47.13;99328.03;4792479;29;20111;-81
2023/02/14 08:05:38;;;;;;;8.02;4.40;;;;;;;1.63;47.69;99316.19;4792228;29;20074;-80
2023/02/14 08:08:04;;;;;;;7.05;4.05;;;;;;;1.98;47.49;99316.38;4808532;29;20210;-82
2023/02/14 08:10:30;;;;;;;8.45;4.93;;;;;;;2.21;46.40;99304.78;4791829;29;20547;-80
2023/02/14 08:12:58;;;;;;;9.35;4.72;;;;;;;2.38;46.46;99311.91;4791344;29;20043;-87
2023/02/14 08:18:21;;;;;;;12.95;4.53;;;;;;;1.96;46.18;99299.81;4778306;29;20042;-84
2023/02/14 08:20:48;;;;;;;9.48;4.78;;;;;;;1.93;46.12;99294.66;4809203;29;20511;-81
2023/02/14 08:23:15;;;;;;;9.73;4.50;;;;;;;2.08;46.52;99280.78;4791729;29;20050;-82
2023/02/14 08:25:41;;;;;;;7.97;4.50;;;;;;;2.16;46.53;99275.16;4777215;29;20050;-82
2023/02/14 08:28:07;;;;;;;6.07;4.10;;;;;;;2.37;46.22;99273.25;4801537;29;20051;-83
2023/02/14 08:30:36;;;;;;;9.80;4.00;;;;;;;2.70;46.19;99275.19;4774388;30;20047;-84
2023/02/14 08:33:02;;;;;;;;;;;;;;;2.75;44.02;99284.63;4774697;30;20594;-84
2023/02/14 08:35:28;;;;;;;11.77;4.30;;;;;;;2.40;44.62;99281.03;4777277;29;20019;-83
2023/02/14 08:37:54;;;;;;;6.40;3.83;;;;;;;2.39;44.67;99276.69;4776375;29;20161;-80
2023/02/14 08:40:20;;;;;;;11.07;4.32;;;;;;;2.71;45.33;99271.63;4778963;29;20415;-86
2023/02/14 08:42:46;;;;;;;10.98;4.47;;;;;;;2.94;45.24;99268.72;4779248;29;20170;-87
2023/02/14 08:45:12;;;;;;;8.82;4.93;;;;;;;3.02;44.88;99265.69;4766121;29;20493;-88
2023/02/14 08:47:39;;;;;;;9.60;6.35;;;;;;;3.02;44.03;99270.97;4810348;29;20074;-85
2023/02/14 08:50:11;;;;;;;8.23;4.32;;;;;;;2.94;44.05;99265.25;4792202;29;20051;-85
2023/02/14 08:52:39;;;;;;;8.98;4.03;;;;;;;3.19;44.06;99270.13;4776154;29;20104;-85
2023/02/14 08:55:05;;;;;;;26.27;4.50;;;;;;;3.55;43.78;99273.50;4791521;29;20047;-85
2023/02/14 08:57:31;;;;;;;15.00;7.68;;;;;;;3.68;42.30;99283.41;4807801;29;20051;-81
2023/02/14 08:59:58;;;;;;;9.27;4.40;;;;;;;3.62;42.53;99268.75;4775523;29;20555;-84
2023/02/14 09:02:23;;;;;;;9.38;5.20;;;;;;;3.63;42.51;99246.66;4774216;30;20079;-87
2023/02/14 09:04:49;;;;;;;6.35;3.90;;;;;;;3.57;42.35;99245.22;4777278;29;20515;-86
2023/02/14 09:07:15;;;;;;;9.70;3.75;;;;;;;3.57;42.63;99237.28;4775297;30;20515;-85
2023/02/14 09:09:41;;;;;;;10.02;3.13;;;;;;;3.55;41.49;99249.72;4760917;29;20055;-84
2023/02/14 09:12:08;;;;;;;7.70;3.03;;;;;;;3.54;41.59;99250.66;4775058;29;20042;-85
2023/02/14 09:14:36;;;;;;;7.13;3.15;;;;;;;3.65;41.96;99250.09;4789465;29;20051;-84
2023/02/14 09:17:04;;;;;;;12.77;6.82;;;;;;;3.54;41.23;99248.03;4792337;29;20054;-88
2023/02/14 09:19:34;;;;;;;3.83;2.70;;;;;;;3.21;40.39;99247.13;4790786;29;20401;-85
2023/02/14 09:22:02;;;;;;;3.42;2.33;;;;;;;3.23;41.77;99237.31;4791424;29;20460;-87
2023/02/14 09:24:30;;;;;;;6.35;2.55;;;;;;;3.15;41.11;99241.22;4779660;30;20420;-86
2023/02/14 09:26:56;;;;;;;6.75;2.08;;;;;;;2.97;40.29;99228.97;4773217;30;20104;-86
2023/02/14 09:29:23;;;;;;;4.45;2.15;;;;;;;3.16;40.60;99236.81;4774627;30;20051;-85
2023/02/14 09:31:53;;;;;;;4.57;2.45;;;;;;;3.22;40.32;99232.97;4789934;30;20134;-89
2023/02/14 09:34:19;;;;;;;6.28;2.80;;;;;;;3.22;40.40;99230.34;4772898;30;20055;-84
2023/02/14 09:39:29;;;;;;;19.48;2.63;;;;;;;2.50;39.78;99221.63;4776535;29;20460;-86
2023/02/14 09:41:55;;;;;;;7.13;2.13;;;;;;;2.74;40.57;99226.63;4791211;29;20046;-81
2023/02/14 09:44:34;;;;;;;7.65;2.35;;;;;;;3.08;39.98;99218.69;4790915;29;20523;-85
2023/02/14 09:47:10;;;;;;;2.40;1.83;;;;;;;3.37;38.91;99229.53;4776807;29;20042;-83
2023/02/14 09:49:38;;;;;;;5.22;2.33;;;;;;;3.28;37.93;99227.41;4791040;29;20067;-86
2023/02/14 09:52:09;;;;;;;3.00;1.95;;;;;;;3.28;38.65;99216.81;4775856;29;20059;-85
2023/02/14 09:54:36;;;;;;;4.70;2.13;;;;;;;3.51;38.56;99203.25;4776688;29;20046;-82
2023/02/14 09:57:22;;;;;;;24.75;2.78;;;;;;;3.93;37.77;99217.72;4790166;29;20097;-85
2023/02/14 10:00:13;;;;;;;7.00;2.10;;;;;;;4.16;37.67;99202.38;4772782;29;20507;-85
2023/02/14 10:02:48;;;;;;;2.25;1.60;;;;;;;4.05;35.99;99190.59;4774075;29;20043;-85
2023/02/14 10:05:22;;;;;;;2.35;1.45;;;;;;;3.87;35.95;99203.06;4773902;29;20043;-84
2023/02/14 10:07:56;;;;;;;2.60;2.00;;;;;;;3.60;36.82;99194.81;4787356;29;20129;-85
2023/02/14 10:10:35;;;;;;;4.47;1.80;;;;;;;3.44;37.23;99188.66;4772420;29;20039;-87
2023/02/14 10:13:28;;;;;;;2.53;1.80;;;;;;;3.30;37.89;99193.81;4773938;29;20078;-87
2023/02/14 10:16:42;;;;;;;5.30;1.80;;;;;;;3.63;37.14;99178.78;4790092;29;20467;-84
2023/02/14 10:19:21;;;;;;;2.55;2.10;;;;;;;3.55;36.68;99183.66;4772411;29;20065;-82
2023/02/14 10:21:53;;;;;;;1.90;1.70;;;;;;;3.85;37.17;99177.63;4759317;29;20051;-83
2023/02/14 10:24:34;;;;;;;4.95;2.25;;;;;;;4.01;36.18;99177.63;4805147;29;20482;-85
2023/02/14 10:27:21;;;;;;;3.40;2.10;;;;;;;3.99;36.97;99168.94;4790754;29;20483;-84
2023/02/14 10:29:47;;;;;;;4.82;2.35;;;;;;;4.23;35.85;99172.84;4775134;29;20153;-85
2023/02/14 10:32:15;;;;;;;9.18;2.38;;;;;;;4.10;36.30;99164.75;4761828;29;20097;-85
2023/02/14 10:34:48;;;;;;;18.98;2.20;;;;;;;3.98;35.85;99162.78;4806400;29;20469;-83
2023/02/14 10:37:28;;;;;;;11.32;2.50;;;;;;;3.99;35.93;99163.66;4775492;29;20495;-86
2023/02/14 10:40:00;;;;;;;4.95;2.17;;;;;;;4.02;36.25;99164.31;4777064;29;20150;-86
2023/02/14 10:42:49;;;;;;;16.85;2.72;;;;;;;3.88;35.91;99166.88;4775678;29;20542;-87
2023/02/14 10:45:36;;;;;;;4.93;2.28;;;;;;;4.03;35.63;99163.38;4797273;29;20054;-85
2023/02/14 10:48:22;;;;;;;8.48;2.58;;;;;;;4.07;34.16;99159.63;4787346;30;20051;-85
2023/02/14 10:50:58;;;;;;;5.47;2.30;;;;;;;3.53;35.30;99160.88;4758581;30;20108;-83
2023/02/14 10:53:51;;;;;;;7.47;2.30;;;;;;;3.59;35.91;99164.03;4774230;30;20051;-88
2023/02/14 10:56:39;;;;;;;5.78;2.65;;;;;;;3.00;36.00;99168.06;4761359;30;20081;-86
2023/02/14 10:59:22;;;;;;;4.45;2.70;;;;;;;2.60;37.10;99159.56;4771814;30;20074;-83
2023/02/14 11:01:51;;;;;;;3.67;2.28;;;;;;;2.54;37.53;99164.28;4787064;30;20065;-85
2023/02/14 11:04:19;;;;;;;4.95;2.58;;;;;;;2.24;37.07;99169.28;4789516;29;20059;-84
2023/02/14 11:06:48;;;;;;;6.90;2.25;;;;;;;1.97;37.17;99161.78;4775099;30;20051;-82
2023/02/14 11:09:14;;;;;;;4.00;2.25;;;;;;;1.85;38.14;99162.38;4776277;30;20058;-85
2023/02/14 11:11:59;;;;;;;4.38;2.33;;;;;;;1.99;37.83;99161.69;4775356;30;20057;-85
2023/02/14 11:14:32;;;;;;;4.82;3.10;;;;;;;1.54;37.76;99163.78;4775263;30;20112;-86
2023/02/14 11:17:19;;;;;;;4.72;3.00;;;;;;;1.42;38.10;99159.09;4793069;30;20055;-87
2023/02/14 11:20:01;;;;;;;4.57;2.90;;;;;;;1.27;38.73;99151.88;4760405;30;20059;-86
2023/02/14 11:22:30;;;;;;;12.70;2.92;;;;;;;1.32;39.03;99161.31;4778284;30;20576;-84
2023/02/14 11:25:26;;;;;;;4.35;2.45;;;;;;;1.43;38.33;99163.44;4764682;29;20047;-87
2023/02/14 11:28:02;;;;;;;6.82;2.65;;;;;;;1.29;38.36;99171.13;4779941;29;20051;-86
2023/02/14 11:30:42;;;;;;;8.88;2.65;;;;;;;1.00;38.64;99154.81;4778983;29;20518;-86
2023/02/14 11:33:41;;;;;;;6.28;3.05;;;;;;;0.75;39.81;99164.69;4793125;29;20415;-85
2023/02/14 11:36:13;;;;;;;6.68;2.72;;;;;;;0.54;40.37;99166.47;4794267;29;20063;-84
2023/02/14 11:38:40;;;;;;;20.73;3.13;;;;;;;0.43;40.65;99159.03;4795388;29;20051;-83
2023/02/14 11:41:09;;;;;;;7.28;2.65;;;;;;;0.30;40.57;99157.81;4809115;29;20127;-87
2023/02/14 11:43:41;;;;;;;15.93;3.60;;;;;;;0.04;41.22;99146.63;4775101;30;20059;-85
2023/02/14 11:46:34;;;;;;;15.57;3.35;;;;;;;0.10;41.22;99151.59;4777850;30;20518;-87
2023/02/14 11:49:03;;;;;;;4.78;2.90;;;;;;;0.11;41.36;99148.06;4747308;30;20055;-86
2023/02/14 11:51:44;;;;;;;;;;;;;;;0.30;41.37;99149.94;4798096;29;20047;-87
2023/02/14 11:54:27;;;;;;;7.40;2.60;;;;;;;0.28;41.52;99141.28;4776154;30;19921;-86
2023/02/14 11:57:00;;;;;;;7.65;3.00;;;;;;;0.44;40.87;99123.94;4790425;30;20504;-86
2023/02/14 11:59:41;;;;;;;4.65;2.80;;;;;;;0.59;40.83;99132.94;4791253;30;20132;-85
2023/02/14 12:02:43;;;;;;;6.05;3.00;;;;;;;0.71;40.53;99133.28;4790309;30;20051;-87
2023/02/14 12:05:30;;;;;;;7.22;3.40;;;;;;;0.62;40.63;99133.66;4774962;30;20054;-86
2023/02/14 12:08:01;;;;;;;7.55;3.00;;;;;;;0.64;40.47;99133.59;4745196;30;20054;-85
2023/02/14 12:10:30;;;;;;;8.20;3.28;;;;;;;0.57;41.14;99135.66;4774693;30;20047;-85
2023/02/14 12:13:02;;;;;;;6.47;3.30;;;;;;;0.72;40.62;99140.25;4789463;30;20126;-85
2023/02/14 12:15:47;;;;;;;5.95;2.85;;;;;;;0.34;40.10;99143.63;4789283;29;20422;-84